Aérodrome :
LOGIN :

S'inscrire | Disclaimer

   EN    FR    IT 

 










Légende :    VFR   VFR Marginal   IFR   IFR Intensif   IFR Très Intensif
Visi : 
Plafond : 
>= 8 km
>= 3000ft
5 à 8 km
1000 à 3000 ft
1500m à 5 km
500 à 1000 ft
800 à 1500m
200 à 500 ft
< 800m
< 200 ft
Symboles :   Orages  Brouillard  Fortes neiges  Fortes précipitations  Vent > 20 kt
SIGMETs :   Divers  Orages  Givrage  Turbulence  Onde Orograph.  Cendres Volcan.







- Altitude de l'aérodrome : 463 ft
- Code IATA : QAS


DAOI - Chlef Int.

DERNIER METAR :
  • 241400Z 25004KT CAVOK 40/10 Q1011

METARs EXPIRÉS :
  • 241300Z VRB03KT CAVOK 40/12 Q1012
  • 241200Z 12003KT CAVOK 39/14 Q1013

TAF TAF DAOI
Valide du 24 à 12h jusqu'au 25 à 12h UTC


241100Z 2412/2512 VRB02KT CAVOK
BECMG 2413/2416 04010KT
BECMG 2421/2424 VRB02KT
BECMG 2509/2512 35012KT
Pas de NOTAMs connus pour ce terrain.



MET'MAP, la Météo Aéronautique d'un coup d'oeil ! - Copyright ORBIFLY Décembre 2007 - Disclaimer

ORBIFLY MET'MAP TEAM :

Programmation & Développement : Alexandra Zaïnal
Conception & Développement : Baudouin d'Aumeries
Co-Programmation & Développement : Marc-Olivier Méhu
Soutien technique & logistique : Manuel Goepfert

Contact : metmap@orbifly.com




SOURCES & CREDITS :

   NOAA